Time;durP1;ratioP1;P1;durP2;ratioP2;P2;SDS_P1;SDS_P2;PMS_P1;PMS_P2;Temp;Humidity;BMP_temperature;BMP_pressure;BME280_temperature;BME280_humidity;BME280_pressure;Samples;Min_cycle;Max_cycle;Signal;HPM_P1;HPM_P2
2024/01/09 00:02:16;;;;;;;6.50;4.20;;;;;;;;;;4867295;29;20052;-41
2024/01/09 00:04:42;;;;;;;5.03;2.80;;;;;;;;;;4868635;29;20199;-41
2024/01/09 00:07:08;;;;;;;6.57;3.83;;;-3.20;99.90;;;;;;4868674;29;20129;-42
2024/01/09 00:09:34;;;;;;;5.20;3.45;;;-3.20;99.90;;;;;;4872448;29;20037;-42
2024/01/09 00:12:00;;;;;;;5.45;3.28;;;-3.20;99.90;;;;;;4873378;29;20113;-42
2024/01/09 00:14:25;;;;;;;5.95;3.80;;;-3.30;99.90;;;;;;4873932;29;20868;-43
2024/01/09 00:16:51;;;;;;;8.50;4.55;;;-3.30;99.90;;;;;;4863719;29;20489;-41
2024/01/09 00:19:17;;;;;;;9.45;3.35;;;-3.30;99.90;;;;;;4865382;29;20488;-41
2024/01/09 00:21:46;;;;;;;3.58;2.08;;;-3.30;99.90;;;;;;4873499;29;20387;-42
2024/01/09 00:24:11;;;;;;;5.90;3.03;;;-3.30;99.90;;;;;;4868935;29;20651;-41
2024/01/09 00:26:44;;;;;;;5.50;3.78;;;-3.30;99.90;;;;;;4869539;29;20044;-42
2024/01/09 00:29:10;;;;;;;5.53;3.70;;;-3.30;99.90;;;;;;4865191;29;20057;-42
2024/01/09 00:31:35;;;;;;;5.78;3.95;;;-3.30;99.90;;;;;;4868628;29;20513;-41
2024/01/09 00:34:01;;;;;;;5.57;4.07;;;-3.30;99.90;;;;;;4869876;29;20044;-41
2024/01/09 00:36:27;;;;;;;5.65;3.22;;;-3.30;99.90;;;;;;4871005;29;20048;-41
2024/01/09 00:38:54;;;;;;;3.92;3.00;;;-3.40;99.90;;;;;;4873008;29;20999;-40
2024/01/09 00:41:19;;;;;;;4.45;2.88;;;-3.30;99.90;;;;;;4868397;29;20116;-41
2024/01/09 00:43:45;;;;;;;4.65;3.47;;;-3.40;99.90;;;;;;4868588;29;20052;-42
2024/01/09 00:46:11;;;;;;;4.60;3.30;;;-3.40;99.90;;;;;;4868832;29;20705;-41
2024/01/09 00:48:37;;;;;;;5.05;3.30;;;-3.40;99.90;;;;;;4871534;29;20041;-41
2024/01/09 00:51:02;;;;;;;5.30;3.08;;;-3.40;99.90;;;;;;4868454;29;20061;-41
2024/01/09 00:53:28;;;;;;;3.65;2.67;;;-3.40;99.90;;;;;;4868593;29;20055;-42
2024/01/09 00:55:55;;;;;;;4.82;3.63;;;-3.40;99.90;;;;;;4870476;29;20052;-41
2024/01/09 00:58:21;;;;;;;8.10;2.70;;;-3.50;99.90;;;;;;4868425;29;20033;-42
2024/01/09 01:00:46;;;;;;;4.68;2.83;;;-3.50;99.90;;;;;;4868865;29;20067;-41
2024/01/09 01:03:12;;;;;;;4.55;3.13;;;-3.50;99.90;;;;;;4868162;29;20052;-41
2024/01/09 01:05:38;;;;;;;7.50;3.67;;;-3.60;99.90;;;;;;4873107;29;20100;-40
2024/01/09 01:08:04;;;;;;;5.60;3.30;;;-3.60;99.90;;;;;;4868181;29;20055;-41
2024/01/09 01:10:30;;;;;;;5.07;2.88;;;-3.60;99.90;;;;;;4870931;29;20041;-43
2024/01/09 01:12:55;;;;;;;4.63;3.13;;;-3.60;99.90;;;;;;4869882;29;20507;-42
2024/01/09 01:15:23;;;;;;;4.43;2.97;;;-3.60;99.90;;;;;;4866599;29;20049;-41
2024/01/09 01:17:48;;;;;;;6.73;3.47;;;-3.60;99.90;;;;;;4863001;29;20225;-43
2024/01/09 01:20:14;;;;;;;6.10;3.53;;;-3.60;99.90;;;;;;4846780;29;20132;-41
2024/01/09 01:22:41;;;;;;;4.90;4.00;;;-3.60;99.90;;;;;;4866995;29;20052;-41
2024/01/09 01:25:08;;;;;;;5.40;3.20;;;-3.60;99.90;;;;;;4868281;29;20056;-43
2024/01/09 01:27:33;;;;;;;3.83;2.97;;;-3.70;99.90;;;;;;4868419;29;20060;-41
2024/01/09 01:29:59;;;;;;;5.95;3.05;;;-3.70;99.90;;;;;;4867323;29;20297;-41
2024/01/09 01:32:25;;;;;;;5.05;3.28;;;-3.70;99.90;;;;;;4867057;29;20049;-41
2024/01/09 01:34:50;;;;;;;3.58;2.78;;;-3.70;99.90;;;;;;4867442;29;20059;-42
2024/01/09 01:37:16;;;;;;;6.35;3.65;;;-3.80;99.90;;;;;;4852072;29;20067;-41
2024/01/09 01:39:42;;;;;;;5.20;3.20;;;-3.70;99.90;;;;;;4867330;29;20053;-42
2024/01/09 01:42:07;;;;;;;5.78;3.70;;;-3.80;99.90;;;;;;4865939;29;20063;-41
2024/01/09 01:44:33;;;;;;;4.80;3.33;;;-3.80;99.90;;;;;;4863921;29;21525;-40
2024/01/09 01:46:58;;;;;;;2.58;2.30;;;-3.80;99.90;;;;;;4868582;29;20476;-40
2024/01/09 01:49:25;;;;;;;4.35;2.97;;;-3.80;99.90;;;;;;4868679;29;20053;-41
2024/01/09 01:51:51;;;;;;;7.28;3.40;;;-3.70;99.90;;;;;;4863624;29;20123;-41
2024/01/09 01:54:19;;;;;;;4.72;2.95;;;-3.80;99.90;;;;;;4869099;29;20471;-42
2024/01/09 01:56:46;;;;;;;7.82;3.65;;;-3.80;99.90;;;;;;4869618;29;20128;-41
2024/01/09 01:59:15;;;;;;;4.25;2.88;;;-3.90;99.90;;;;;;4863811;29;20037;-41
2024/01/09 02:01:43;;;;;;;3.78;2.55;;;-3.90;99.90;;;;;;4864557;29;20045;-43
2024/01/09 02:04:09;;;;;;;;;;;-3.90;99.90;;;;;;4871405;29;20057;-42
2024/01/09 02:06:37;;;;;;;4.07;3.00;;;-3.90;99.90;;;;;;4877107;29;20461;-41
2024/01/09 02:09:04;;;;;;;4.65;3.28;;;-3.90;99.90;;;;;;4872835;29;20421;-41
2024/01/09 02:11:30;;;;;;;4.75;3.63;;;-3.90;99.90;;;;;;4873127;29;20180;-41
2024/01/09 02:13:55;;;;;;;6.45;4.05;;;-4.00;99.90;;;;;;4875693;29;20487;-44
2024/01/09 02:16:21;;;;;;;5.13;3.25;;;-4.00;99.90;;;;;;4869460;29;20045;-43
2024/01/09 02:18:46;;;;;;;7.15;4.13;;;-4.00;99.90;;;;;;4868629;29;20097;-42
2024/01/09 02:21:12;;;;;;;6.40;3.47;;;-4.00;99.90;;;;;;4872506;29;20507;-42
2024/01/09 02:23:38;;;;;;;3.60;2.67;;;-4.00;99.90;;;;;;4877546;29;20048;-41
2024/01/09 02:26:05;;;;;;;3.92;2.22;;;-4.00;99.90;;;;;;4870792;29;20041;-41
2024/01/09 02:28:39;;;;;;;8.40;3.72;;;-4.00;99.90;;;;;;4850599;29;20056;-41
2024/01/09 02:31:05;;;;;;;5.13;3.15;;;-4.00;99.90;;;;;;4858874;29;20045;-41
2024/01/09 02:33:32;;;;;;;8.48;3.72;;;-4.00;99.90;;;;;;4874891;29;20441;-42
2024/01/09 02:35:58;;;;;;;4.95;3.30;;;-4.10;99.90;;;;;;4869061;29;20053;-40
2024/01/09 02:38:23;;;;;;;6.05;4.03;;;-4.10;99.90;;;;;;4871533;29;20045;-40
2024/01/09 02:40:49;;;;;;;5.22;3.03;;;-4.10;99.90;;;;;;4870541;29;20049;-40
2024/01/09 02:43:15;;;;;;;7.15;3.63;;;-4.10;99.90;;;;;;4856191;29;20144;-40
2024/01/09 02:45:40;;;;;;;4.80;3.60;;;-4.10;99.90;;;;;;4868723;29;20081;-40
2024/01/09 02:48:06;;;;;;;4.70;2.85;;;-4.10;99.90;;;;;;4867386;29;20037;-40
2024/01/09 02:50:32;;;;;;;4.72;2.72;;;-4.10;99.90;;;;;;4872399;29;20519;-41
2024/01/09 02:52:57;;;;;;;5.25;3.22;;;-4.20;99.90;;;;;;4870747;29;20048;-40
2024/01/09 02:55:23;;;;;;;4.20;2.67;;;-4.10;99.90;;;;;;4869884;29;20124;-41
2024/01/09 02:57:48;;;;;;;5.10;2.65;;;-4.10;99.90;;;;;;4874267;29;20052;-42
2024/01/09 03:00:14;;;;;;;4.78;3.50;;;-4.20;99.90;;;;;;4857972;29;20084;-41
2024/01/09 03:02:40;;;;;;;8.00;4.05;;;-4.20;99.90;;;;;;4858316;29;20177;-41
2024/01/09 03:05:09;;;;;;;4.38;3.25;;;-4.20;99.90;;;;;;4868502;29;20040;-41
2024/01/09 03:07:35;;;;;;;3.58;2.70;;;-4.30;99.90;;;;;;4871178;29;20045;-42
2024/01/09 03:10:02;;;;;;;6.63;3.78;;;-4.30;99.90;;;;;;4871049;29;20412;-41
2024/01/09 03:12:27;;;;;;;5.30;3.47;;;-4.20;99.90;;;;;;4869897;29;20533;-40
2024/01/09 03:14:53;;;;;;;3.40;2.53;;;-4.30;99.90;;;;;;4867274;29;20124;-41
2024/01/09 03:17:18;;;;;;;4.85;2.72;;;-4.30;99.90;;;;;;4869012;29;20041;-40
2024/01/09 03:19:45;;;;;;;5.75;3.55;;;-4.30;99.90;;;;;;4870801;29;20100;-41
2024/01/09 03:22:10;;;;;;;3.65;2.78;;;-4.30;99.90;;;;;;4872482;29;20049;-42
2024/01/09 03:24:36;;;;;;;8.63;3.58;;;-4.40;99.90;;;;;;4873275;29;20448;-41
2024/01/09 03:27:02;;;;;;;6.03;3.38;;;-4.40;99.90;;;;;;4852388;29;20057;-44
2024/01/09 03:29:27;;;;;;;4.28;2.85;;;-4.40;99.90;;;;;;4876363;29;20099;-41
2024/01/09 03:31:54;;;;;;;4.35;3.22;;;-4.40;99.90;;;;;;4875914;29;20645;-41
2024/01/09 03:34:20;;;;;;;5.18;3.03;;;-4.40;99.90;;;;;;4869116;29;20077;-43
2024/01/09 03:36:45;;;;;;;3.50;2.78;;;-4.40;99.90;;;;;;4868407;29;20520;-40
2024/01/09 03:39:14;;;;;;;4.70;2.95;;;-4.40;99.90;;;;;;4875364;29;21556;-41
2024/01/09 03:41:41;;;;;;;4.25;3.10;;;-4.50;99.90;;;;;;4869886;29;20041;-41
2024/01/09 03:44:07;;;;;;;5.18;3.40;;;-4.50;99.90;;;;;;4874002;29;20049;-40
2024/01/09 03:46:32;;;;;;;3.83;2.85;;;-4.50;99.90;;;;;;4871482;29;20059;-41
2024/01/09 03:48:58;;;;;;;5.07;2.97;;;-4.60;99.90;;;;;;4872128;29;20354;-41
2024/01/09 03:51:23;;;;;;;6.18;2.60;;;-4.60;99.90;;;;;;4872791;29;20044;-43
2024/01/09 03:53:49;;;;;;;4.85;3.90;;;-4.60;99.90;;;;;;4871650;29;20159;-41
2024/01/09 03:56:15;;;;;;;3.50;2.88;;;-4.60;99.90;;;;;;4869550;29;20045;-40
2024/01/09 03:58:40;;;;;;;6.30;3.22;;;-4.60;99.90;;;;;;4873422;29;20057;-42
2024/01/09 04:01:06;;;;;;;4.47;3.40;;;-4.60;99.90;;;;;;4871718;29;20045;-40
2024/01/09 04:03:31;;;;;;;5.03;3.70;;;-4.70;99.90;;;;;;4871503;29;20044;-41
2024/01/09 04:05:57;;;;;;;7.13;4.10;;;-4.70;99.90;;;;;;4871029;29;20040;-40
2024/01/09 04:08:23;;;;;;;5.65;3.40;;;-4.70;99.90;;;;;;4871740;29;20045;-40
2024/01/09 04:10:48;;;;;;;6.53;3.20;;;-4.60;99.90;;;;;;4872396;29;20135;-41
2024/01/09 04:13:14;;;;;;;5.45;3.60;;;-4.70;99.90;;;;;;4874763;29;20037;-41
2024/01/09 04:15:40;;;;;;;5.38;3.38;;;-4.70;99.90;;;;;;4868973;29;20041;-42
2024/01/09 04:18:06;;;;;;;5.38;3.67;;;-4.70;99.90;;;;;;4871595;29;20492;-42
2024/01/09 04:20:32;;;;;;;2.63;2.30;;;-4.70;99.90;;;;;;4873209;29;20104;-40
2024/01/09 04:22:57;;;;;;;8.20;3.30;;;-4.70;99.90;;;;;;4870419;29;20037;-41
2024/01/09 04:25:23;;;;;;;6.60;3.00;;;-4.80;99.90;;;;;;4870002;29;20052;-40
2024/01/09 04:27:49;;;;;;;5.65;3.92;;;-4.80;99.90;;;;;;4870581;29;20540;-40
2024/01/09 04:30:14;;;;;;;3.22;2.17;;;-4.80;99.90;;;;;;4854216;29;20041;-40
2024/01/09 04:32:40;;;;;;;6.28;3.67;;;-4.80;99.90;;;;;;4870980;29;20056;-40
2024/01/09 04:35:06;;;;;;;6.03;3.60;;;-4.80;99.90;;;;;;4873432;29;20106;-41
2024/01/09 04:37:31;;;;;;;4.10;3.05;;;-4.90;99.90;;;;;;4872931;29;20075;-42
2024/01/09 04:39:57;;;;;;;4.63;2.50;;;-4.80;99.90;;;;;;4855511;29;20101;-41
2024/01/09 04:42:22;;;;;;;3.17;1.98;;;-4.90;99.90;;;;;;4869360;29;20070;-40
2024/01/09 04:44:48;;;;;;;2.92;2.33;;;-4.90;99.90;;;;;;4853295;29;20100;-41
2024/01/09 04:47:15;;;;;;;5.82;2.70;;;-4.90;99.90;;;;;;4872258;29;20060;-42
2024/01/09 04:49:44;;;;;;;5.85;3.20;;;-4.90;99.90;;;;;;4871518;29;20092;-41
2024/01/09 04:52:11;;;;;;;6.35;3.20;;;-4.90;99.90;;;;;;4872709;29;20045;-42
2024/01/09 04:54:37;;;;;;;6.78;3.67;;;-4.90;99.90;;;;;;4871780;29;20053;-43
2024/01/09 04:57:02;;;;;;;7.68;3.60;;;-4.90;99.90;;;;;;4872710;29;20056;-41
2024/01/09 04:59:28;;;;;;;4.55;3.42;;;-4.90;99.90;;;;;;4871841;29;20942;-41
2024/01/09 05:01:54;;;;;;;5.90;3.10;;;-4.90;99.90;;;;;;4857489;29;20060;-40
2024/01/09 05:04:19;;;;;;;6.30;3.42;;;-5.00;99.90;;;;;;4872147;29;20041;-41
2024/01/09 05:06:45;;;;;;;4.72;3.22;;;-4.90;99.90;;;;;;4873134;29;20052;-42
2024/01/09 05:09:11;;;;;;;5.63;3.63;;;-4.90;99.90;;;;;;4855951;29;20056;-41
2024/01/09 05:11:37;;;;;;;6.22;3.35;;;-4.90;99.90;;;;;;4872583;29;20033;-40
2024/01/09 05:14:03;;;;;;;5.47;3.22;;;-5.00;99.90;;;;;;4870645;29;20093;-41
2024/01/09 05:16:28;;;;;;;5.60;3.50;;;-5.00;99.90;;;;;;4869128;29;20078;-41
2024/01/09 05:18:54;;;;;;;4.50;2.97;;;-5.00;99.90;;;;;;4871465;29;20045;-40
2024/01/09 05:21:21;;;;;;;3.50;2.35;;;-5.00;99.90;;;;;;4869602;29;20117;-42
2024/01/09 05:23:47;;;;;;;4.65;3.22;;;-5.00;99.90;;;;;;4853601;29;20041;-40
2024/01/09 05:26:12;;;;;;;4.13;3.00;;;-5.00;99.90;;;;;;4871360;29;20188;-40
2024/01/09 05:28:38;;;;;;;3.22;2.42;;;-5.00;99.90;;;;;;4856439;29;20041;-40
2024/01/09 05:31:04;;;;;;;3.92;2.90;;;-5.00;99.90;;;;;;4872661;29;20558;-42
2024/01/09 05:33:31;;;;;;;5.15;3.45;;;-5.00;99.90;;;;;;4869109;29;20272;-41
2024/01/09 05:35:57;;;;;;;4.25;3.03;;;-5.00;99.90;;;;;;4871247;29;20045;-40
2024/01/09 05:38:23;;;;;;;7.50;3.78;;;-5.00;99.90;;;;;;4874979;29;20516;-40
2024/01/09 05:40:49;;;;;;;5.68;3.20;;;-5.00;99.90;;;;;;4878170;29;20438;-40
2024/01/09 05:43:15;;;;;;;3.63;2.03;;;-5.00;99.90;;;;;;4879605;29;20625;-40
2024/01/09 05:45:41;;;;;;;5.53;2.80;;;-5.10;99.90;;;;;;4875198;29;20069;-41
2024/01/09 05:48:06;;;;;;;3.88;2.63;;;-5.10;99.90;;;;;;4875682;29;20163;-42
2024/01/09 05:50:32;;;;;;;4.82;3.30;;;-5.10;99.90;;;;;;4875437;29;20485;-42
2024/01/09 05:52:58;;;;;;;5.03;3.33;;;-5.10;99.90;;;;;;4874059;29;20057;-41
2024/01/09 05:55:23;;;;;;;6.00;3.90;;;-5.10;99.90;;;;;;4877982;29;20049;-40
2024/01/09 05:57:49;;;;;;;6.20;3.75;;;-5.10;99.90;;;;;;4874831;29;20037;-41
2024/01/09 06:00:16;;;;;;;4.65;2.95;;;-5.10;99.90;;;;;;4859197;29;20488;-41
2024/01/09 06:02:43;;;;;;;5.28;3.42;;;-5.20;99.90;;;;;;4875518;29;20044;-41
2024/01/09 06:05:09;;;;;;;6.90;3.70;;;;;;;;;;4876474;29;20656;-42
2024/01/09 06:07:34;;;;;;;4.20;3.08;;;-5.20;99.90;;;;;;4877264;29;20045;-41
2024/01/09 06:10:00;;;;;;;7.63;3.38;;;-5.20;99.90;;;;;;4875173;29;20052;-40
2024/01/09 06:12:25;;;;;;;6.15;3.35;;;-5.20;99.90;;;;;;4874958;29;20037;-40
2024/01/09 06:14:51;;;;;;;6.93;3.38;;;-5.20;99.90;;;;;;4860635;29;20044;-40
2024/01/09 06:17:17;;;;;;;5.70;2.67;;;-5.30;99.90;;;;;;4873129;29;20064;-43
2024/01/09 06:19:42;;;;;;;3.80;3.08;;;-5.30;99.90;;;;;;4870382;29;20586;-40
2024/01/09 06:22:08;;;;;;;5.10;2.95;;;-5.30;99.90;;;;;;4872217;29;20044;-40
2024/01/09 06:24:33;;;;;;;4.90;3.60;;;-5.30;99.90;;;;;;4875732;29;20071;-41
2024/01/09 06:26:59;;;;;;;5.10;3.60;;;-5.40;99.90;;;;;;4872095;29;20132;-42
2024/01/09 06:29:25;;;;;;;5.15;3.17;;;-5.40;99.90;;;;;;4873698;29;20069;-40
2024/01/09 06:31:50;;;;;;;6.28;3.38;;;-5.30;99.90;;;;;;4875973;29;20041;-42
2024/01/09 06:34:16;;;;;;;7.30;4.20;;;-5.40;99.90;;;;;;4874612;29;20060;-40
2024/01/09 06:36:45;;;;;;;3.88;3.05;;;-5.40;99.90;;;;;;4870923;29;20053;-43
2024/01/09 06:39:11;;;;;;;4.10;2.92;;;-5.40;99.90;;;;;;4878048;29;20101;-40
2024/01/09 06:41:37;;;;;;;6.68;3.88;;;-5.30;99.90;;;;;;4872380;29;20476;-41
2024/01/09 06:44:03;;;;;;;4.28;2.40;;;-5.40;99.90;;;;;;4874281;29;20105;-40
2024/01/09 06:46:28;;;;;;;5.50;3.30;;;-5.40;99.90;;;;;;4874304;29;20381;-41
2024/01/09 06:48:54;;;;;;;3.72;2.92;;;-5.40;99.90;;;;;;4870989;29;20049;-41
2024/01/09 06:51:20;;;;;;;5.20;2.60;;;-5.40;99.90;;;;;;4869761;29;20040;-41
2024/01/09 06:53:45;;;;;;;4.43;2.90;;;-5.40;99.90;;;;;;4874746;29;20088;-41
2024/01/09 06:56:11;;;;;;;3.80;2.75;;;-5.40;99.90;;;;;;4871048;29;21792;-42
2024/01/09 06:58:37;;;;;;;5.18;3.20;;;;;;;;;;4873954;29;20044;-41
2024/01/09 07:01:03;;;;;;;5.43;3.33;;;-5.50;99.90;;;;;;4870696;29;20044;-41
2024/01/09 07:03:30;;;;;;;5.22;3.47;;;-5.50;99.90;;;;;;4868767;29;20048;-40
2024/01/09 07:05:55;;;;;;;6.50;3.53;;;-5.50;99.90;;;;;;4870226;29;20080;-40
2024/01/09 07:08:22;;;;;;;5.07;3.20;;;-5.50;99.90;;;;;;4874718;29;20128;-41
2024/01/09 07:10:47;;;;;;;14.80;3.88;;;-5.50;99.90;;;;;;4869274;29;20988;-41
2024/01/09 07:13:13;;;;;;;6.40;3.33;;;-5.50;99.90;;;;;;4873661;29;20471;-42
2024/01/09 07:15:39;;;;;;;6.18;2.72;;;-5.50;99.90;;;;;;4869573;29;20049;-42
2024/01/09 07:18:04;;;;;;;5.50;3.70;;;-5.50;99.90;;;;;;4868178;29;20049;-42
2024/01/09 07:20:30;;;;;;;6.45;3.88;;;-5.50;99.90;;;;;;4874824;29;20464;-40
2024/01/09 07:22:56;;;;;;;5.30;2.50;;;-5.50;99.90;;;;;;4873991;29;20041;-42
2024/01/09 07:25:21;;;;;;;9.57;3.28;;;-5.60;99.90;;;;;;4870287;29;20420;-41
2024/01/09 07:27:47;;;;;;;6.93;3.45;;;-5.60;99.90;;;;;;4872645;29;20044;-40
2024/01/09 07:30:14;;;;;;;7.07;3.42;;;-5.60;99.90;;;;;;4871109;29;20088;-40
2024/01/09 07:32:40;;;;;;;4.20;2.20;;;-5.60;99.90;;;;;;4870327;29;20083;-41
2024/01/09 07:35:06;;;;;;;5.43;3.67;;;-5.50;99.90;;;;;;4871902;29;20069;-40
2024/01/09 07:37:32;;;;;;;4.55;2.78;;;-5.60;99.90;;;;;;4867047;29;20140;-42
2024/01/09 07:39:57;;;;;;;4.30;3.15;;;-5.50;99.90;;;;;;4870409;29;20481;-42
2024/01/09 07:42:23;;;;;;;4.40;2.95;;;-5.60;99.90;;;;;;4868863;29;20041;-40
2024/01/09 07:44:48;;;;;;;6.85;3.53;;;-5.60;99.90;;;;;;4868947;29;20191;-41
2024/01/09 07:47:14;;;;;;;5.07;3.22;;;-5.60;99.90;;;;;;4871459;29;20049;-41
2024/01/09 07:49:40;;;;;;;5.03;3.20;;;-5.60;99.90;;;;;;4867722;29;20457;-43
2024/01/09 07:52:06;;;;;;;5.75;3.15;;;-5.50;99.90;;;;;;4870734;29;20128;-41
2024/01/09 07:54:32;;;;;;;4.90;3.60;;;-5.60;99.90;;;;;;4872078;29;20124;-41
2024/01/09 07:56:57;;;;;;;4.25;2.85;;;-5.50;99.90;;;;;;4871137;29;20053;-42
2024/01/09 07:59:23;;;;;;;6.28;2.78;;;-5.50;99.90;;;;;;4865272;29;20110;-43
2024/01/09 08:01:54;;;;;;;4.95;2.58;;;-5.50;99.90;;;;;;4866592;29;20041;-42
2024/01/09 08:04:23;;;;;;;4.22;2.45;;;-5.50;99.90;;;;;;4868841;29;20128;-42
2024/01/09 08:06:50;;;;;;;4.85;2.95;;;-5.50;99.90;;;;;;4870005;29;20137;-41
2024/01/09 08:09:19;;;;;;;4.07;3.53;;;-5.50;99.90;;;;;;4874033;29;20052;-41
2024/01/09 08:11:46;;;;;;;6.13;3.28;;;-5.40;99.90;;;;;;4869644;29;20052;-43
2024/01/09 08:14:13;;;;;;;7.07;3.55;;;-5.40;99.90;;;;;;4867825;29;20508;-42
2024/01/09 08:16:40;;;;;;;3.80;2.50;;;-5.40;99.90;;;;;;4868840;29;20088;-43
2024/01/09 08:19:09;;;;;;;5.32;3.00;;;-5.40;99.90;;;;;;4873467;29;20064;-40
2024/01/09 08:21:35;;;;;;;4.20;2.42;;;-5.40;99.90;;;;;;4867574;29;20052;-41
2024/01/09 08:24:02;;;;;;;5.20;2.95;;;-5.40;99.90;;;;;;4851724;29;20060;-41
2024/01/09 08:26:28;;;;;;;3.67;2.55;;;-5.40;99.90;;;;;;4872274;29;20061;-43
2024/01/09 08:28:54;;;;;;;5.00;2.45;;;-5.30;99.90;;;;;;4866795;29;20056;-42
2024/01/09 08:31:19;;;;;;;7.07;3.40;;;-5.30;99.90;;;;;;4870105;29;20053;-42
2024/01/09 08:33:45;;;;;;;5.53;2.95;;;-5.30;99.90;;;;;;4872719;29;20044;-41
2024/01/09 08:36:11;;;;;;;5.40;3.42;;;-5.30;99.90;;;;;;4868977;29;20045;-41
2024/01/09 08:38:38;;;;;;;5.88;3.20;;;-5.20;99.90;;;;;;4868489;29;20053;-41
2024/01/09 08:41:05;;;;;;;4.80;2.45;;;-5.20;99.90;;;;;;4868136;29;20032;-41
2024/01/09 08:43:31;;;;;;;2.92;2.17;;;-5.10;99.90;;;;;;4871363;29;20037;-42
2024/01/09 08:45:56;;;;;;;5.50;3.28;;;-5.20;99.90;;;;;;4870003;29;20045;-41
2024/01/09 08:48:22;;;;;;;5.38;3.25;;;-5.10;99.90;;;;;;4865009;29;20093;-41
2024/01/09 08:50:49;;;;;;;6.03;3.40;;;-5.00;99.90;;;;;;4867077;29;20064;-41
2024/01/09 08:53:14;;;;;;;7.55;3.45;;;-5.10;99.90;;;;;;4868474;29;20480;-42
2024/01/09 08:55:40;;;;;;;6.00;2.92;;;-5.00;99.90;;;;;;4870391;29;20128;-42
2024/01/09 08:58:06;;;;;;;4.88;3.47;;;-5.00;99.90;;;;;;4870096;29;20072;-43
2024/01/09 09:00:31;;;;;;;5.15;3.28;;;-5.00;99.90;;;;;;4869052;29;20128;-42
2024/01/09 09:02:58;;;;;;;7.50;3.08;;;-4.90;99.90;;;;;;4871066;29;20487;-41
2024/01/09 09:05:24;;;;;;;3.95;2.47;;;-4.90;99.90;;;;;;4867616;29;20577;-41
2024/01/09 09:07:50;;;;;;;5.68;3.50;;;-4.80;99.90;;;;;;4869743;29;20049;-42
2024/01/09 09:10:17;;;;;;;4.97;2.90;;;;;;;;;;4873296;29;21651;-41
2024/01/09 09:12:43;;;;;;;5.78;3.65;;;-4.70;99.90;;;;;;4870861;29;20084;-42
2024/01/09 09:15:09;;;;;;;5.72;3.15;;;-4.70;99.90;;;;;;4868793;29;20041;-41
2024/01/09 09:17:34;;;;;;;7.00;3.95;;;-4.60;99.90;;;;;;4872088;29;20053;-42
2024/01/09 09:20:00;;;;;;;3.85;2.08;;;-4.60;99.90;;;;;;4870559;29;20041;-42
2024/01/09 09:22:26;;;;;;;5.35;3.00;;;-4.50;99.90;;;;;;4854718;29;20037;-42
2024/01/09 09:24:52;;;;;;;4.13;2.45;;;-4.40;99.90;;;;;;4874311;29;22160;-41
2024/01/09 09:27:18;;;;;;;5.05;3.13;;;-4.40;99.90;;;;;;4873526;29;20048;-43
2024/01/09 09:29:44;;;;;;;4.30;2.83;;;-4.40;99.90;;;;;;4868916;29;20192;-41
2024/01/09 09:32:10;;;;;;;4.78;2.53;;;-4.30;99.90;;;;;;4873572;29;20114;-42
2024/01/09 09:34:39;;;;;;;8.48;2.85;;;-4.20;99.90;;;;;;4872971;29;20283;-42
2024/01/09 09:37:05;;;;;;;4.30;2.45;;;-4.20;99.90;;;;;;4873437;29;20080;-42
2024/01/09 09:39:30;;;;;;;4.93;3.28;;;-4.10;99.90;;;;;;4874417;29;20081;-42
2024/01/09 09:41:57;;;;;;;3.67;2.40;;;-4.10;99.90;;;;;;4857509;29;20053;-42
2024/01/09 09:44:24;;;;;;;6.15;3.10;;;-4.00;99.90;;;;;;4871728;29;20104;-42
2024/01/09 09:46:51;;;;;;;5.40;2.40;;;-4.00;99.90;;;;;;4875513;29;20429;-41
2024/01/09 09:49:22;;;;;;;4.07;2.70;;;-3.90;99.90;;;;;;4858062;29;20088;-41
2024/01/09 09:51:50;;;;;;;3.58;2.67;;;-3.90;99.90;;;;;;4870145;29;20041;-41
2024/01/09 09:54:16;;;;;;;6.03;3.40;;;-3.80;99.90;;;;;;4866635;29;20044;-41
2024/01/09 09:56:43;;;;;;;4.35;2.72;;;-3.80;99.90;;;;;;4867599;29;20528;-43
2024/01/09 09:59:12;;;;;;;3.75;1.73;;;-3.70;99.90;;;;;;4858948;29;20084;-42
2024/01/09 10:01:39;;;;;;;5.75;2.95;;;-3.70;99.90;;;;;;4863577;29;20066;-41
2024/01/09 10:04:36;;;;;;;4.47;2.80;;;-3.70;99.90;;;;;;4858886;29;20037;-41
2024/01/09 10:07:06;;;;;;;5.03;3.20;;;-3.70;99.90;;;;;;4864755;29;20622;-41
2024/01/09 10:09:34;;;;;;;5.00;3.38;;;-3.60;99.90;;;;;;4853781;29;20128;-42
2024/01/09 10:12:00;;;;;;;4.88;2.63;;;-3.50;99.90;;;;;;4877222;29;20045;-41
2024/01/09 10:14:26;;;;;;;4.10;2.95;;;-3.60;99.90;;;;;;4876935;29;20049;-42
2024/01/09 10:16:53;;;;;;;3.75;2.60;;;-3.50;99.90;;;;;;4876301;29;20491;-42
2024/01/09 10:19:22;;;;;;;7.28;3.30;;;-3.40;99.90;;;;;;4873093;29;20064;-42
2024/01/09 10:21:48;;;;;;;3.15;2.45;;;-3.40;99.90;;;;;;4877572;29;20045;-43
2024/01/09 10:24:14;;;;;;;5.75;2.80;;;-3.40;99.90;;;;;;4872927;29;20411;-41
2024/01/09 10:26:40;;;;;;;4.22;3.00;;;-3.40;99.90;;;;;;4877839;29;20055;-41
2024/01/09 10:29:08;;;;;;;4.82;3.13;;;-3.30;99.90;;;;;;4888688;29;20484;-42
2024/01/09 10:31:34;;;;;;;;;;;-3.20;99.90;;;;;;4891553;29;20459;-42
2024/01/09 10:34:00;;;;;;;3.20;2.00;;;-3.20;99.90;;;;;;4870010;29;19930;-41
2024/01/09 10:36:27;;;;;;;5.32;2.70;;;-3.20;99.90;;;;;;4894818;29;20488;-41
2024/01/09 10:39:02;;;;;;;7.03;3.47;;;-3.20;99.90;;;;;;4886075;29;20040;-43
2024/01/09 10:41:28;;;;;;;5.18;3.15;;;-3.00;99.90;;;;;;4877513;29;20456;-41
2024/01/09 10:43:54;;;;;;;4.32;2.80;;;-3.00;99.90;;;;;;4878945;29;20046;-41
2024/01/09 10:46:24;;;;;;;3.40;2.38;;;-2.90;99.90;;;;;;4881019;29;20390;-43
2024/01/09 10:48:51;;;;;;;3.40;2.33;;;-2.90;99.90;;;;;;4878796;29;20365;-42
2024/01/09 10:51:18;;;;;;;5.10;2.35;;;-2.80;99.90;;;;;;4878519;29;20375;-41
2024/01/09 10:53:47;;;;;;;4.50;2.80;;;-2.70;99.90;;;;;;4880474;29;20052;-41
2024/01/09 10:56:18;;;;;;;3.80;2.83;;;-2.70;99.90;;;;;;4880935;29;20120;-41
2024/01/09 10:58:46;;;;;;;5.43;2.42;;;-2.70;99.90;;;;;;4878237;29;20073;-41
2024/01/09 11:01:13;;;;;;;3.95;2.45;;;-2.60;99.90;;;;;;4882523;29;20412;-41
2024/01/09 11:03:39;;;;;;;4.30;2.03;;;-2.50;99.90;;;;;;4871392;29;20052;-41
2024/01/09 11:06:07;;;;;;;1.98;1.48;;;-2.50;99.90;;;;;;4880707;29;20389;-41
2024/01/09 11:08:36;;;;;;;3.83;2.78;;;-2.40;99.90;;;;;;4881402;29;20559;-42
2024/01/09 11:11:12;;;;;;;2.75;2.10;;;-2.30;99.90;;;;;;4880137;29;20048;-42
2024/01/09 11:13:42;;;;;;;3.78;2.85;;;-2.30;99.90;;;;;;4880671;29;20092;-42
2024/01/09 11:16:10;;;;;;;2.90;1.85;;;-2.20;99.90;;;;;;4880393;29;20159;-41
2024/01/09 11:18:36;;;;;;;4.40;2.83;;;-2.20;99.90;;;;;;4880466;29;20041;-42
2024/01/09 11:21:06;;;;;;;3.58;2.58;;;-2.10;99.90;;;;;;4865141;29;20055;-44
2024/01/09 11:23:44;;;;;;;4.32;2.75;;;-2.10;99.90;;;;;;4880556;29;20132;-43
2024/01/09 11:26:12;;;;;;;3.95;2.28;;;-2.00;99.90;;;;;;4880530;29;20059;-41
2024/01/09 11:28:41;;;;;;;2.55;1.80;;;-1.90;99.90;;;;;;4880508;29;20045;-42
2024/01/09 11:31:07;;;;;;;4.95;2.42;;;-1.90;99.90;;;;;;4863424;29;20058;-42
2024/01/09 11:33:33;;;;;;;4.60;2.53;;;-1.80;99.90;;;;;;4879898;29;20045;-42
2024/01/09 11:36:05;;;;;;;3.30;2.20;;;-1.80;99.90;;;;;;4877956;29;20098;-41
2024/01/09 11:38:32;;;;;;;3.40;2.03;;;-1.80;99.90;;;;;;4879714;29;20369;-42
2024/01/09 11:41:03;;;;;;;3.22;2.30;;;-1.70;99.90;;;;;;4880194;29;20128;-43
2024/01/09 11:43:28;;;;;;;4.05;2.40;;;-1.80;99.30;;;;;;4880119;29;20571;-43
2024/01/09 11:45:54;;;;;;;2.45;2.05;;;-1.80;99.40;;;;;;4880239;29;20079;-42
2024/01/09 11:48:20;;;;;;;3.65;2.08;;;-1.70;98.80;;;;;;4878171;29;20089;-44
2024/01/09 11:50:45;;;;;;;3.53;2.15;;;-1.60;98.80;;;;;;4881515;29;20092;-41
2024/01/09 11:53:11;;;;;;;2.95;2.17;;;-1.50;99.90;;;;;;4881624;29;20428;-43
2024/01/09 11:55:37;;;;;;;5.82;2.50;;;-1.50;99.00;;;;;;4881240;29;20143;-43
2024/01/09 11:58:04;;;;;;;3.88;2.47;;;-1.40;99.90;;;;;;4881091;29;20037;-46
2024/01/09 12:00:30;;;;;;;3.42;2.42;;;-1.30;99.90;;;;;;4882985;29;20376;-43
2024/01/09 12:02:55;;;;;;;4.00;1.85;;;-1.30;99.90;;;;;;4885386;29;20207;-44
2024/01/09 12:05:23;;;;;;;3.55;1.92;;;-1.10;99.20;;;;;;4880024;29;20033;-43
2024/01/09 12:07:48;;;;;;;2.93;2.23;;;-1.30;98.40;;;;;;4879112;29;20116;-42
2024/01/09 12:10:15;;;;;;;3.03;2.28;;;-1.30;98.90;;;;;;4882880;29;20041;-45
2024/01/09 12:12:40;;;;;;;3.90;2.85;;;-0.80;99.90;;;;;;4881223;29;20045;-42
2024/01/09 12:15:07;;;;;;;4.00;2.83;;;-0.90;99.90;;;;;;4879082;29;20059;-43
2024/01/09 12:17:41;;;;;;;5.75;2.60;;;-1.00;99.90;;;;;;4879388;29;20041;-43
2024/01/09 12:20:10;;;;;;;3.85;2.70;;;-0.40;99.90;;;;;;4879463;29;20584;-43
2024/01/09 12:22:36;;;;;;;3.47;2.20;;;-0.70;99.90;;;;;;4873963;29;20053;-43
2024/01/09 12:25:05;;;;;;;2.67;2.05;;;-0.80;99.90;;;;;;4883334;29;20489;-43
2024/01/09 12:27:31;;;;;;;2.80;2.35;;;-0.60;99.90;;;;;;4888886;29;20049;-43
2024/01/09 12:29:58;;;;;;;3.00;2.20;;;-0.70;99.90;;;;;;4882736;29;20099;-42
2024/01/09 12:32:24;;;;;;;2.95;2.17;;;-0.70;99.90;;;;;;4877934;29;20053;-42
2024/01/09 12:34:49;;;;;;;2.20;1.88;;;-0.50;99.90;;;;;;4876176;29;20097;-42
2024/01/09 12:37:16;;;;;;;2.25;1.85;;;-0.70;99.90;;;;;;4878785;29;20487;-43
2024/01/09 12:39:41;;;;;;;4.00;2.35;;;-0.70;99.90;;;;;;4879547;29;20040;-43
2024/01/09 12:42:10;;;;;;;4.07;2.10;;;-0.80;99.90;;;;;;4881426;29;20147;-42
2024/01/09 12:44:42;;;;;;;4.05;2.15;;;-0.80;99.90;;;;;;4880126;29;20052;-43